Coe, Illinois
Current Conditions -  °F | °C
As of 4:52 PM on Friday 28 Nov 2014 (Local Time) from KDVN Reporting Station
Clear Clear  
Wind Chill: 24°   Ceiling: Unl
Heat Index: 32°   Visibility: 9mi
Dew Point: 26°   Wind: 9mph
Humidity: 79%   Direction: 120°ESE
Pressure: 29.89"   Gusts: NA
Location:  41.595°N, 90.2974°W
Report Text: KDVN 282252Z AUTO 12008KT 9SM CLR 00/M03 A2989 RMK AO2 SLP133 T00001033 FZRANO
Loading
Personal Weather Stations






























Interactive Weather Map New forecast layout! Learn more

10-Day Weather Forecast

Advertisements
Track Severe Weather on mobile